Missouri Valley, Iowa
Current Conditions -  °F | °C
As of 9:15 AM on Friday 19 Dec 2014 (Local Time) from KBTA Reporting Station
Haze Haze  
Wind Chill: 25°   Ceiling: 500
Heat Index: 32°   Visibility: 2.5mi
Dew Point: 30°   Wind: 8mph
Humidity: 92%   Direction: 170°S
Pressure: 30.2"   Gusts: NA
Location:  41.56°N, 95.89°W
Report Text: KBTA 191515Z AUTO 17007KT 2 1/2SM BR BKN005 OVC012 00/M01 A3020 RMK AO2 T00001012
Loading
Personal Weather Stations






























Interactive Weather Map New forecast layout! Learn more

10-Day Weather Forecast

Advertisements
Track Severe Weather on mobile